Time;durP1;ratioP1;P1;durP2;ratioP2;P2;SDS_P1;SDS_P2;PMS_P1;PMS_P2;Temp;Humidity;BMP_temperature;BMP_pressure;BME280_temperature;BME280_humidity;BME280_pressure;Samples;Min_cycle;Max_cycle;Signal;HPM_P1;HPM_P2
2022/06/19 00:01:26;;;;;;;12.80;2.08;;;18.20;99.90;;;;;;5056121;28;20510;-73
2022/06/19 00:03:55;;;;;;;15.93;2.97;;;18.20;99.90;;;;;;5055311;28;20049;-73
2022/06/19 00:06:21;;;;;;;11.50;1.83;;;18.20;99.90;;;;;;5054655;28;20049;-73
2022/06/19 00:08:48;;;;;;;11.93;1.95;;;18.00;99.90;;;;;;5071621;28;20084;-73
2022/06/19 00:11:18;;;;;;;11.23;1.80;;;18.10;99.90;;;;;;5071402;28;20059;-73
2022/06/19 00:13:44;;;;;;;13.10;2.10;;;18.00;99.90;;;;;;5055639;28;20045;-74
2022/06/19 00:16:10;;;;;;;13.30;1.80;;;18.20;99.90;;;;;;5038233;28;20063;-74
2022/06/19 00:18:38;;;;;;;11.63;1.80;;;18.20;99.90;;;;;;5055823;28;20045;-73
2022/06/19 00:21:05;;;;;;;10.60;1.20;;;18.10;99.80;;;;;;5054718;28;20045;-73
2022/06/19 00:23:30;;;;;;;9.30;1.38;;;18.10;99.60;;;;;;5071367;28;20392;-73
2022/06/19 00:25:56;;;;;;;6.90;1.40;;;18.10;99.50;;;;;;5055230;28;20128;-73
2022/06/19 00:28:22;;;;;;;10.13;1.23;;;17.90;99.20;;;;;;5054056;28;20508;-73
2022/06/19 00:30:48;;;;;;;7.25;1.40;;;17.90;99.50;;;;;;5054871;28;20092;-73
2022/06/19 00:33:14;;;;;;;10.27;1.30;;;17.90;99.10;;;;;;5070997;28;20092;-73
2022/06/19 00:35:39;;;;;;;10.05;1.00;;;17.70;99.10;;;;;;5054353;28;20048;-73
2022/06/19 00:38:05;;;;;;;7.68;0.95;;;17.60;99.10;;;;;;5055352;28;20045;-73
2022/06/19 00:40:31;;;;;;;6.95;1.17;;;17.80;99.20;;;;;;5055274;28;20041;-73
2022/06/19 00:42:57;;;;;;;8.20;1.38;;;17.90;99.20;;;;;;5054038;28;20051;-74
2022/06/19 00:45:31;;;;;;;7.43;1.10;;;17.90;99.00;;;;;;5054221;28;20048;-73
2022/06/19 00:47:57;;;;;;;10.10;1.23;;;17.80;99.10;;;;;;5055571;28;20048;-73
2022/06/19 00:50:27;;;;;;;16.05;1.70;;;17.90;99.30;;;;;;5070713;28;20056;-73
2022/06/19 00:52:53;;;;;;;12.35;1.98;;;17.90;99.10;;;;;;5054058;28;20057;-73
2022/06/19 00:55:29;;;;;;;10.80;1.50;;;17.90;99.10;;;;;;5053806;28;20521;-73
2022/06/19 00:58:02;;;;;;;16.52;2.00;;;17.70;99.60;;;;;;5054454;28;20051;-73
2022/06/19 01:00:29;;;;;;;12.13;1.80;;;17.90;99.40;;;;;;5054076;28;20041;-73
2022/06/19 01:02:58;;;;;;;11.93;1.52;;;17.90;99.20;;;;;;5053633;28;20047;-73
2022/06/19 01:05:26;;;;;;;12.70;1.77;;;17.90;99.30;;;;;;5054600;28;20553;-73
2022/06/19 01:07:54;;;;;;;18.08;2.72;;;17.90;99.60;;;;;;5053315;28;20404;-73
2022/06/19 01:10:19;;;;;;;12.23;1.70;;;18.00;99.40;;;;;;5070506;28;20152;-73
2022/06/19 01:12:46;;;;;;;9.05;1.63;;;18.00;99.60;;;;;;5053742;28;20128;-73
2022/06/19 01:15:15;;;;;;;12.65;1.80;;;17.90;99.60;;;;;;5053701;28;20041;-73
2022/06/19 01:17:43;;;;;;;11.68;1.52;;;17.90;99.80;;;;;;5054473;28;20441;-73
2022/06/19 01:20:11;;;;;;;14.30;1.98;;;17.90;99.90;;;;;;5053602;28;20049;-73
2022/06/19 01:22:42;;;;;;;13.13;1.73;;;18.00;99.80;;;;;;5054513;28;20045;-73
2022/06/19 01:25:15;;;;;;;16.15;1.88;;;17.80;99.90;;;;;;5053136;28;20057;-73
2022/06/19 01:30:39;;;;;;;13.90;2.15;;;17.50;99.90;;;;;;5070191;28;20055;-73
2022/06/19 01:33:09;;;;;;;13.70;1.92;;;17.60;99.90;;;;;;5052329;28;20503;-74
2022/06/19 01:35:36;;;;;;;12.93;1.75;;;17.60;99.90;;;;;;5052932;28;20049;-73
2022/06/19 01:38:12;;;;;;;16.65;2.03;;;17.60;99.90;;;;;;5054103;28;20056;-73
2022/06/19 01:40:41;;;;;;;14.82;1.67;;;17.20;99.90;;;;;;5069762;28;20055;-73
2022/06/19 01:43:06;;;;;;;18.88;2.53;;;17.40;99.90;;;;;;5052958;28;20041;-72
2022/06/19 01:45:32;;;;;;;16.27;1.90;;;17.30;99.90;;;;;;5052989;28;20049;-73
2022/06/19 01:47:59;;;;;;;21.20;2.92;;;17.20;99.90;;;;;;5054068;28;20174;-72
2022/06/19 01:50:28;;;;;;;15.02;2.03;;;17.40;99.90;;;;;;5069133;28;20452;-72
2022/06/19 01:53:04;;;;;;;13.68;2.20;;;17.30;99.90;;;;;;5053150;28;20059;-72
2022/06/19 01:55:32;;;;;;;14.80;2.05;;;17.10;99.90;;;;;;5052442;28;20052;-72
2022/06/19 01:57:59;;;;;;;21.65;2.65;;;16.90;99.90;;;;;;5053810;28;20049;-73
2022/06/19 02:00:29;;;;;;;15.07;1.95;;;17.20;99.90;;;;;;5052697;28;20049;-72
2022/06/19 02:03:03;;;;;;;16.88;2.45;;;16.90;99.90;;;;;;5052644;28;20060;-72
2022/06/19 02:05:31;;;;;;;15.63;2.08;;;16.70;99.90;;;;;;5052178;28;20124;-72
2022/06/19 02:07:57;;;;;;;12.02;1.75;;;16.60;99.90;;;;;;5051211;28;20041;-72
2022/06/19 02:10:23;;;;;;;17.67;2.20;;;16.70;99.90;;;;;;5052607;28;20435;-72
2022/06/19 02:12:49;;;;;;;14.02;1.80;;;16.70;99.90;;;;;;5053340;28;20111;-73
2022/06/19 02:15:14;;;;;;;16.02;2.15;;;16.70;99.90;;;;;;5069394;28;20056;-73
2022/06/19 02:17:52;;;;;;;16.25;2.22;;;16.70;99.90;;;;;;5053044;28;20594;-72
2022/06/19 02:20:20;;;;;;;17.20;2.53;;;16.90;99.90;;;;;;5052314;28;20045;-72
2022/06/19 02:22:46;;;;;;;16.67;2.50;;;16.80;99.90;;;;;;5052399;28;20507;-72
2022/06/19 02:25:12;;;;;;;21.15;2.55;;;16.50;99.90;;;;;;5051577;28;20049;-72
2022/06/19 02:27:38;;;;;;;17.38;2.35;;;16.50;99.90;;;;;;5052335;28;20187;-72
2022/06/19 02:30:08;;;;;;;15.02;1.90;;;16.60;99.90;;;;;;5052150;28;20060;-72
2022/06/19 02:32:42;;;;;;;13.50;1.88;;;16.40;99.90;;;;;;5053318;28;20037;-71
2022/06/19 02:35:16;;;;;;;17.73;2.60;;;16.20;99.90;;;;;;5052678;28;20095;-71
2022/06/19 02:37:45;;;;;;;20.13;2.40;;;16.30;99.90;;;;;;5053257;28;20079;-71
2022/06/19 02:40:38;;;;;;;18.17;2.50;;;16.40;99.90;;;;;;5053271;28;20123;-71
2022/06/19 02:43:13;;;;;;;16.73;2.40;;;16.10;99.90;;;;;;5053117;28;20053;-72
2022/06/19 02:45:39;;;;;;;24.13;2.90;;;16.20;99.90;;;;;;5068918;28;20060;-73
2022/06/19 02:48:06;;;;;;;18.02;1.83;;;16.50;99.90;;;;;;5051828;28;20104;-72
2022/06/19 02:50:34;;;;;;;20.40;2.17;;;16.50;99.90;;;;;;5052120;28;20084;-71
2022/06/19 02:53:01;;;;;;;15.63;1.83;;;16.40;99.90;;;;;;5053704;28;20056;-71
2022/06/19 02:55:27;;;;;;;17.08;3.13;;;16.60;99.90;;;;;;5051765;28;20456;-72
2022/06/19 02:57:53;;;;;;;15.57;2.20;;;16.50;99.90;;;;;;5052367;28;20096;-71
2022/06/19 03:00:26;;;;;;;15.38;3.72;;;16.30;99.90;;;;;;5052152;28;20048;-72
2022/06/19 03:02:56;;;;;;;19.42;2.05;;;16.30;99.90;;;;;;5052204;28;20503;-74
2022/06/19 03:05:26;;;;;;;18.88;2.28;;;16.30;99.90;;;;;;5051431;28;20045;-71
2022/06/19 03:07:52;;;;;;;19.60;2.58;;;16.10;99.90;;;;;;5052423;28;20049;-71
2022/06/19 03:10:18;;;;;;;19.98;2.65;;;16.00;99.90;;;;;;5052326;28;20040;-71
2022/06/19 03:12:44;;;;;;;18.25;2.13;;;16.20;99.90;;;;;;5052653;28;20055;-71
2022/06/19 03:15:14;;;;;;;15.90;2.40;;;16.10;99.90;;;;;;5052933;28;20127;-72
2022/06/19 03:17:40;;;;;;;19.13;2.47;;;16.30;99.90;;;;;;5068938;28;20057;-72
2022/06/19 03:20:08;;;;;;;18.52;2.22;;;16.50;99.90;;;;;;5052995;28;20053;-71
2022/06/19 03:22:33;;;;;;;12.48;1.75;;;16.50;99.90;;;;;;5052573;28;20510;-71
2022/06/19 03:25:00;;;;;;;21.52;3.38;;;16.60;99.90;;;;;;5051607;28;20127;-78
2022/06/19 03:27:26;;;;;;;19.13;2.92;;;16.60;99.90;;;;;;5052988;28;20103;-71
2022/06/19 03:29:51;;;;;;;12.25;2.90;;;16.40;99.90;;;;;;5052367;28;20060;-71
2022/06/19 03:32:18;;;;;;;16.50;2.15;;;16.30;99.90;;;;;;5053087;28;20504;-71
2022/06/19 03:34:44;;;;;;;11.95;1.70;;;16.40;99.90;;;;;;5055538;28;20049;-71
2022/06/19 03:37:10;;;;;;;14.77;2.17;;;16.50;99.90;;;;;;5072420;28;20053;-71
2022/06/19 03:39:36;;;;;;;14.38;1.83;;;16.50;99.90;;;;;;5072064;28;20075;-72
2022/06/19 03:42:02;;;;;;;15.55;2.30;;;16.60;99.90;;;;;;5055215;28;20099;-71
2022/06/19 03:44:28;;;;;;;18.92;2.58;;;16.60;99.90;;;;;;5054466;28;20045;-71
2022/06/19 03:46:54;;;;;;;17.92;2.35;;;16.40;99.90;;;;;;5054560;28;20502;-71
2022/06/19 03:49:20;;;;;;;15.35;1.83;;;16.30;99.90;;;;;;5054858;28;20457;-71
2022/06/19 03:51:46;;;;;;;16.70;2.83;;;16.40;99.90;;;;;;5054616;28;20366;-72
2022/06/19 03:54:12;;;;;;;15.70;2.00;;;16.30;99.90;;;;;;5055347;28;20052;-71
2022/06/19 03:56:38;;;;;;;15.27;1.60;;;16.20;99.90;;;;;;5055633;28;20483;-71
2022/06/19 03:59:04;;;;;;;19.33;2.20;;;16.00;99.90;;;;;;5071553;28;20514;-71
2022/06/19 04:01:36;;;;;;;19.08;2.38;;;16.00;99.90;;;;;;5055173;28;20045;-71
2022/06/19 04:04:04;;;;;;;18.40;1.80;;;16.10;99.90;;;;;;5055205;28;20377;-71
2022/06/19 04:06:32;;;;;;;19.05;2.80;;;16.10;99.90;;;;;;5055936;28;20048;-71
2022/06/19 04:08:59;;;;;;;29.75;4.30;;;16.20;99.90;;;;;;5054809;28;20048;-71
2022/06/19 04:11:27;;;;;;;20.67;2.78;;;16.20;99.90;;;;;;5055760;28;20430;-71
2022/06/19 04:13:53;;;;;;;15.60;2.35;;;16.30;99.90;;;;;;5071575;28;20067;-71
2022/06/19 04:16:24;;;;;;;18.80;2.55;;;16.40;99.90;;;;;;5054705;28;20085;-72
2022/06/19 04:18:52;;;;;;;19.40;2.35;;;16.50;99.90;;;;;;5055977;28;20055;-72
2022/06/19 04:21:21;;;;;;;12.57;1.83;;;16.60;99.90;;;;;;5055598;28;20052;-72
2022/06/19 04:23:49;;;;;;;19.27;2.88;;;16.60;99.90;;;;;;5071400;28;20396;-72
2022/06/19 04:26:16;;;;;;;20.00;2.45;;;16.50;99.90;;;;;;5054096;28;20076;-72
2022/06/19 04:28:43;;;;;;;15.45;2.65;;;16.20;99.90;;;;;;5053812;28;20061;-72
2022/06/19 04:31:09;;;;;;;15.70;1.67;;;16.00;99.90;;;;;;5054572;28;20057;-73
2022/06/19 04:33:38;;;;;;;16.50;2.38;;;15.80;99.90;;;;;;5054720;28;20483;-72
2022/06/19 04:36:11;;;;;;;14.43;1.92;;;15.50;99.90;;;;;;5070928;28;20068;-73
2022/06/19 04:38:41;;;;;;;17.58;1.90;;;15.60;99.90;;;;;;5055307;28;20507;-72
2022/06/19 04:41:20;;;;;;;14.07;2.50;;;15.40;99.90;;;;;;5054304;28;20049;-73
2022/06/19 04:43:46;;;;;;;16.65;2.00;;;15.20;99.90;;;;;;5054280;28;20087;-72
2022/06/19 04:46:12;;;;;;;12.38;1.83;;;15.30;99.90;;;;;;5054119;28;20492;-73
2022/06/19 04:48:38;;;;;;;9.57;1.73;;;15.20;99.90;;;;;;5054051;28;20084;-72
2022/06/19 04:51:05;;;;;;;8.15;1.27;;;15.00;99.90;;;;;;5071010;28;20369;-73
2022/06/19 04:53:32;;;;;;;11.50;1.25;;;15.00;99.90;;;;;;5070832;28;20057;-73
2022/06/19 04:55:58;;;;;;;13.55;1.85;;;14.80;99.90;;;;;;5054032;28;20100;-73
2022/06/19 04:58:24;;;;;;;7.63;1.17;;;14.70;99.90;;;;;;5053951;28;20114;-73
2022/06/19 05:00:51;;;;;;;7.88;1.30;;;14.60;99.90;;;;;;5054140;28;20041;-73
2022/06/19 05:03:19;;;;;;;6.45;1.20;;;14.60;99.90;;;;;;5061073;28;20493;-72
2022/06/19 05:05:46;;;;;;;8.85;0.90;;;14.60;99.90;;;;;;5071829;28;20483;-74
2022/06/19 05:08:17;;;;;;;6.15;0.85;;;14.70;99.90;;;;;;5073834;28;20065;-73
2022/06/19 05:10:42;;;;;;;7.75;1.10;;;14.90;99.90;;;;;;5073580;28;20058;-73
2022/06/19 05:13:19;;;;;;;10.52;1.30;;;15.10;99.90;;;;;;5074871;28;20418;-73
2022/06/19 05:15:46;;;;;;;12.13;1.20;;;15.20;99.90;;;;;;5073822;28;20135;-73
2022/06/19 05:18:12;;;;;;;8.65;1.00;;;15.20;99.90;;;;;;5073545;28;20055;-73
2022/06/19 05:20:38;;;;;;;8.35;1.00;;;14.90;99.90;;;;;;5073479;28;20055;-73
2022/06/19 05:23:05;;;;;;;9.10;1.30;;;15.00;99.90;;;;;;5057650;28;20391;-73
2022/06/19 05:25:31;;;;;;;11.60;1.55;;;15.00;99.90;;;;;;5073130;28;20080;-73
2022/06/19 05:27:57;;;;;;;11.95;2.22;;;15.20;99.90;;;;;;5072926;28;20072;-73
2022/06/19 05:30:23;;;;;;;13.02;1.80;;;15.30;99.90;;;;;;5056644;28;20121;-72
2022/06/19 05:32:48;;;;;;;10.93;1.75;;;15.20;99.90;;;;;;5072961;28;20076;-73
2022/06/19 05:35:14;;;;;;;11.90;1.92;;;15.20;99.90;;;;;;5073354;28;20044;-73
2022/06/19 05:37:40;;;;;;;8.77;1.58;;;15.30;99.90;;;;;;5073173;28;20051;-73
2022/06/19 05:40:06;;;;;;;8.25;1.13;;;15.40;99.90;;;;;;5073259;28;20114;-73
2022/06/19 05:42:32;;;;;;;9.48;1.65;;;15.50;99.90;;;;;;5072960;28;20470;-73
2022/06/19 05:44:58;;;;;;;15.38;1.60;;;15.30;99.90;;;;;;5073098;28;20132;-72
2022/06/19 05:47:23;;;;;;;13.85;1.80;;;15.20;99.90;;;;;;5056095;28;20048;-73
2022/06/19 05:49:49;;;;;;;9.70;1.38;;;15.30;99.90;;;;;;5072948;28;20067;-72
2022/06/19 05:52:18;;;;;;;8.85;1.27;;;15.10;99.90;;;;;;5073380;28;20048;-72
2022/06/19 05:54:44;;;;;;;12.57;2.05;;;15.20;99.90;;;;;;5055930;28;20045;-72
2022/06/19 05:57:10;;;;;;;7.20;1.17;;;15.40;99.90;;;;;;5055977;28;20049;-72
2022/06/19 05:59:36;;;;;;;11.38;1.60;;;15.40;99.90;;;;;;5072833;28;20093;-72
2022/06/19 06:02:02;;;;;;;18.10;2.03;;;15.50;99.90;;;;;;5073632;28;20381;-73
2022/06/19 06:04:27;;;;;;;13.45;1.90;;;15.30;99.90;;;;;;5073763;28;20037;-72
2022/06/19 06:06:53;;;;;;;17.58;2.00;;;15.10;99.90;;;;;;5072651;28;20045;-72
2022/06/19 06:09:19;;;;;;;14.75;2.30;;;15.00;99.90;;;;;;5056255;28;20048;-72
2022/06/19 06:11:45;;;;;;;17.70;2.00;;;14.90;99.90;;;;;;5072844;28;20048;-72
2022/06/19 06:14:12;;;;;;;12.48;1.80;;;14.90;99.90;;;;;;5072876;28;20059;-72
2022/06/19 06:16:37;;;;;;;19.05;2.20;;;14.80;99.90;;;;;;5073350;28;20088;-73
2022/06/19 06:19:03;;;;;;;18.17;1.55;;;14.70;99.90;;;;;;5073562;28;20079;-73
2022/06/19 06:21:29;;;;;;;21.58;1.98;;;14.60;99.90;;;;;;5072419;28;20122;-72
2022/06/19 06:23:55;;;;;;;19.10;2.45;;;14.50;99.90;;;;;;5056001;28;20048;-73
2022/06/19 06:26:29;;;;;;;8.18;1.60;;;14.60;99.90;;;;;;5072131;28;20055;-73
2022/06/19 06:28:57;;;;;;;17.77;2.40;;;14.70;99.90;;;;;;5072236;28;20480;-72
2022/06/19 06:31:23;;;;;;;14.77;1.83;;;14.80;99.90;;;;;;5072197;28;20088;-72
2022/06/19 06:33:49;;;;;;;18.25;2.53;;;14.90;99.90;;;;;;5055736;28;20080;-73
2022/06/19 06:36:16;;;;;;;12.20;2.13;;;15.20;99.90;;;;;;5072528;28;20052;-73
2022/06/19 06:38:42;;;;;;;13.27;1.98;;;15.40;99.90;;;;;;5072462;28;20048;-73
2022/06/19 06:41:10;;;;;;;17.13;2.53;;;15.60;99.90;;;;;;5073485;28;20051;-72
2022/06/19 06:43:40;;;;;;;17.23;2.20;;;15.60;99.90;;;;;;5089022;28;20088;-72
2022/06/19 06:46:18;;;;;;;17.63;2.20;;;15.60;99.90;;;;;;5072281;28;20051;-73
2022/06/19 06:48:45;;;;;;;19.02;2.13;;;15.80;99.90;;;;;;5072013;28;20088;-72
2022/06/19 06:51:18;;;;;;;17.45;2.28;;;15.80;99.90;;;;;;5071985;28;20055;-73
2022/06/19 06:53:44;;;;;;;15.32;1.80;;;15.80;99.90;;;;;;5072370;28;20074;-72
2022/06/19 06:56:10;;;;;;;13.10;2.30;;;15.90;99.90;;;;;;5071670;28;20044;-72
2022/06/19 06:58:38;;;;;;;13.38;2.22;;;15.90;99.90;;;;;;5072026;28;20130;-72
2022/06/19 07:01:15;;;;;;;16.33;2.13;;;16.10;99.90;;;;;;5072183;28;20041;-73
2022/06/19 07:03:46;;;;;;;15.70;1.98;;;16.20;99.90;;;;;;5089618;28;20055;-72
2022/06/19 07:06:12;;;;;;;21.42;2.20;;;16.30;99.90;;;;;;5056046;28;20383;-72
2022/06/19 07:08:39;;;;;;;21.13;2.20;;;16.20;99.90;;;;;;5075533;28;20396;-73
2022/06/19 07:11:04;;;;;;;12.75;2.00;;;16.20;99.90;;;;;;5075638;28;20052;-72
2022/06/19 07:13:30;;;;;;;15.52;1.60;;;16.00;99.90;;;;;;5076189;28;20067;-72
2022/06/19 07:15:56;;;;;;;18.30;1.80;;;16.10;99.90;;;;;;5076138;28;20082;-73
2022/06/19 07:18:22;;;;;;;16.13;1.48;;;16.30;99.90;;;;;;5092813;28;20101;-72
2022/06/19 07:20:47;;;;;;;16.63;1.80;;;16.40;99.90;;;;;;5076078;28;20443;-72
2022/06/19 07:23:13;;;;;;;13.57;1.70;;;16.50;99.90;;;;;;5075647;28;20139;-72
2022/06/19 07:25:39;;;;;;;14.45;2.03;;;16.60;99.90;;;;;;5075072;28;20419;-73
2022/06/19 07:28:05;;;;;;;15.40;2.17;;;16.70;99.90;;;;;;5058017;28;20045;-73
2022/06/19 07:30:31;;;;;;;14.00;1.85;;;16.70;99.90;;;;;;5075212;28;20052;-73
2022/06/19 07:32:56;;;;;;;14.02;2.13;;;16.60;99.90;;;;;;5076514;28;20052;-72
2022/06/19 07:35:23;;;;;;;17.80;2.55;;;16.70;99.90;;;;;;5075335;28;20052;-72
2022/06/19 07:37:51;;;;;;;19.35;2.47;;;16.80;99.90;;;;;;5075435;28;20060;-73
2022/06/19 07:40:19;;;;;;;18.48;1.88;;;16.80;99.90;;;;;;5075409;28;20040;-72
2022/06/19 07:42:45;;;;;;;11.45;1.95;;;16.70;99.90;;;;;;5078130;28;20080;-71
2022/06/19 07:45:12;;;;;;;15.07;1.67;;;16.80;99.90;;;;;;5096490;28;20055;-73
2022/06/19 07:50:23;;;;;;;13.57;2.58;;;16.70;99.90;;;;;;5075769;28;20502;-78
2022/06/19 07:52:50;;;;;;;9.93;1.65;;;16.70;99.90;;;;;;5075727;28;20102;-71
2022/06/19 07:55:30;;;;;;;9.77;1.85;;;16.80;99.90;;;;;;5075146;28;20087;-71
2022/06/19 07:57:59;;;;;;;13.98;1.65;;;16.80;99.90;;;;;;5078079;28;20407;-70
2022/06/19 08:00:28;;;;;;;20.50;1.70;;;16.90;99.90;;;;;;5076503;28;20110;-71
2022/06/19 08:02:54;;;;;;;18.30;1.73;;;17.00;99.90;;;;;;5074938;28;20048;-73
2022/06/19 08:05:23;;;;;;;12.85;1.50;;;16.80;99.90;;;;;;5076163;28;20101;-70
2022/06/19 08:07:50;;;;;;;21.00;2.38;;;16.90;99.90;;;;;;5075900;28;20048;-70
2022/06/19 08:10:43;;;;;;;17.92;2.33;;;16.90;99.90;;;;;;5076032;28;20056;-71
2022/06/19 08:13:10;;;;;;;14.15;2.25;;;17.00;99.90;;;;;;5072953;28;20096;-70
2022/06/19 08:15:36;;;;;;;15.88;2.75;;;16.90;99.90;;;;;;5075785;28;20045;-70
2022/06/19 08:18:02;;;;;;;13.15;1.88;;;17.00;99.90;;;;;;5074638;28;20059;-70
2022/06/19 08:20:29;;;;;;;11.40;1.50;;;17.10;99.90;;;;;;5075680;28;20048;-70
2022/06/19 08:22:55;;;;;;;15.40;1.88;;;17.10;99.90;;;;;;5075869;28;20036;-70
2022/06/19 08:25:23;;;;;;;12.38;1.48;;;17.00;99.90;;;;;;5075066;28;20040;-70
2022/06/19 08:27:50;;;;;;;13.48;1.88;;;16.80;99.90;;;;;;5075509;28;20123;-71
2022/06/19 08:30:21;;;;;;;16.50;2.22;;;16.90;99.90;;;;;;5075682;28;20053;-70
2022/06/19 08:32:47;;;;;;;10.85;1.95;;;16.90;99.90;;;;;;5075475;28;20098;-69
2022/06/19 08:35:13;;;;;;;15.15;2.05;;;17.10;99.90;;;;;;5075647;28;20083;-71
2022/06/19 08:37:41;;;;;;;11.38;2.10;;;17.00;99.90;;;;;;5074420;28;20091;-71
2022/06/19 08:40:44;;;;;;;15.18;1.88;;;16.80;99.90;;;;;;5075595;28;20051;-71
2022/06/19 08:43:39;;;;;;;8.52;1.40;;;16.90;99.90;;;;;;5074068;28;20044;-71
2022/06/19 08:46:20;;;;;;;13.93;1.60;;;17.00;99.90;;;;;;5074725;28;20480;-71
2022/06/19 08:49:04;;;;;;;10.93;1.25;;;17.00;99.90;;;;;;5056639;28;20045;-71
2022/06/19 08:51:41;;;;;;;14.73;1.70;;;16.90;99.90;;;;;;5074450;28;20144;-72
2022/06/19 08:54:10;;;;;;;9.30;1.20;;;17.20;99.90;;;;;;5073680;28;20044;-72
2022/06/19 08:56:48;;;;;;;12.63;1.80;;;17.30;99.90;;;;;;5073989;28;20051;-72
2022/06/19 08:59:46;;;;;;;12.90;1.80;;;17.50;99.90;;;;;;5074185;28;20569;-75
2022/06/19 09:02:36;;;;;;;9.63;1.35;;;17.60;99.90;;;;;;5075077;28;20059;-72
2022/06/19 09:08:02;;;;;;;12.07;2.03;;;17.30;99.90;;;;;;5074748;28;20059;-73
2022/06/19 09:10:33;;;;;;;11.05;1.55;;;17.20;99.90;;;;;;5074886;28;20045;-72
2022/06/19 09:13:08;;;;;;;10.05;1.70;;;17.10;99.90;;;;;;5073693;28;20041;-72
2022/06/19 09:16:10;;;;;;;8.82;1.45;;;16.80;99.90;;;;;;5073771;28;20040;-73
2022/06/19 09:18:39;;;;;;;9.85;1.65;;;16.90;99.90;;;;;;5070676;28;20441;-71
2022/06/19 09:21:40;;;;;;;10.20;1.55;;;16.90;99.90;;;;;;5073362;28;20439;-72
2022/06/19 09:24:34;;;;;;;7.68;1.33;;;17.10;99.90;;;;;;5073564;28;20546;-71
2022/06/19 09:27:01;;;;;;;12.15;1.30;;;17.20;99.90;;;;;;5074034;28;20040;-71
2022/06/19 09:29:29;;;;;;;7.93;0.93;;;17.20;99.90;;;;;;5072045;28;20082;-72
2022/06/19 09:32:01;;;;;;;7.75;1.23;;;17.20;99.90;;;;;;5074417;28;20059;-71
2022/06/19 09:34:36;;;;;;;10.27;1.50;;;17.10;99.90;;;;;;5074306;28;20052;-71
2022/06/19 09:37:09;;;;;;;8.48;1.33;;;17.10;99.90;;;;;;5073436;28;20056;-71
2022/06/19 09:39:48;;;;;;;9.55;1.00;;;17.00;99.90;;;;;;5074012;28;20055;-72
2022/06/19 09:42:27;;;;;;;9.93;1.55;;;17.00;99.90;;;;;;5090362;28;20048;-72
2022/06/19 09:45:16;;;;;;;8.55;1.00;;;16.80;99.90;;;;;;5089989;28;20522;-72
2022/06/19 09:47:45;;;;;;;12.02;1.90;;;16.90;99.90;;;;;;5074151;28;20052;-72
2022/06/19 09:50:49;;;;;;;7.25;1.38;;;17.10;99.90;;;;;;5074094;28;20044;-73
2022/06/19 09:53:29;;;;;;;7.20;1.17;;;17.20;99.90;;;;;;5057708;28;20056;-73
2022/06/19 09:55:59;;;;;;;7.93;1.35;;;17.20;99.90;;;;;;5072731;28;20048;-73
2022/06/19 09:58:45;;;;;;;7.95;1.08;;;17.20;99.90;;;;;;5072834;28;20037;-72
2022/06/19 10:01:11;;;;;;;7.85;0.90;;;17.40;99.90;;;;;;5072924;28;20491;-72
2022/06/19 10:03:44;;;;;;;5.75;0.85;;;17.40;99.90;;;;;;5074015;28;20098;-72
2022/06/19 10:06:15;;;;;;;5.93;0.73;;;17.60;99.90;;;;;;5089372;28;20067;-72
2022/06/19 10:09:12;;;;;;;4.72;0.85;;;17.70;99.90;;;;;;5073995;28;20040;-73
2022/06/19 10:11:41;;;;;;;6.50;0.70;;;17.90;99.90;;;;;;5072905;28;20059;-72
2022/06/19 10:14:31;;;;;;;6.47;0.93;;;17.90;99.90;;;;;;5072588;28;20098;-72
2022/06/19 10:17:28;;;;;;;9.70;1.38;;;18.00;99.90;;;;;;5072771;28;20078;-73
2022/06/19 10:20:01;;;;;;;6.57;0.82;;;18.10;99.90;;;;;;5072777;28;20048;-72
2022/06/19 10:22:45;;;;;;;8.93;1.05;;;17.80;99.90;;;;;;5072568;28;20483;-72
2022/06/19 10:25:23;;;;;;;6.10;1.48;;;17.70;99.90;;;;;;5089856;28;20127;-72
2022/06/19 10:28:17;;;;;;;6.43;0.90;;;17.40;99.90;;;;;;5073559;28;20041;-72
2022/06/19 10:31:01;;;;;;;8.00;1.27;;;17.40;99.90;;;;;;5072416;28;20091;-72
2022/06/19 10:33:52;;;;;;;4.60;0.60;;;17.50;99.90;;;;;;5072692;28;20052;-73
2022/06/19 10:36:30;;;;;;;6.78;1.00;;;17.60;99.90;;;;;;5072384;28;20088;-72
2022/06/19 10:39:20;;;;;;;9.77;1.20;;;17.70;99.90;;;;;;5072585;28;20552;-72
2022/06/19 10:42:07;;;;;;;6.93;0.80;;;17.60;99.90;;;;;;5073671;28;20184;-72
2022/06/19 10:44:50;;;;;;;4.43;1.17;;;17.60;99.90;;;;;;5073522;28;20048;-72
2022/06/19 10:47:58;;;;;;;4.30;0.80;;;17.70;99.90;;;;;;5072531;28;20102;-72
2022/06/19 10:50:59;;;;;;;8.15;1.00;;;17.70;99.90;;;;;;5073533;28;20055;-73
2022/06/19 10:53:47;;;;;;;2.67;0.55;;;17.90;99.90;;;;;;5072356;28;20400;-73
2022/06/19 10:56:45;;;;;;;6.65;0.80;;;18.20;99.90;;;;;;5088622;28;20049;-73
2022/06/19 10:59:13;;;;;;;6.32;0.70;;;18.30;99.90;;;;;;5072424;28;20036;-72
2022/06/19 11:04:39;;;;;;;7.05;0.60;;;18.40;99.90;;;;;;5073095;28;20059;-73
2022/06/19 11:07:09;;;;;;;2.88;0.55;;;18.70;99.90;;;;;;5055397;28;20556;-73
2022/06/19 11:09:39;;;;;;;2.65;0.55;;;18.50;99.90;;;;;;5073225;28;20052;-73
2022/06/19 11:12:23;;;;;;;3.50;0.75;;;18.30;99.90;;;;;;5073144;28;20049;-72
2022/06/19 11:14:54;;;;;;;2.58;0.50;;;18.10;99.90;;;;;;5072768;28;20078;-73
2022/06/19 11:17:42;;;;;;;3.03;0.30;;;17.90;99.90;;;;;;5073362;28;20456;-73
2022/06/19 11:20:17;;;;;;;3.33;0.28;;;17.60;99.90;;;;;;5072877;28;20404;-72
2022/06/19 11:22:46;;;;;;;2.25;0.57;;;17.80;99.90;;;;;;5071799;28;20216;-73
2022/06/19 11:25:14;;;;;;;2.08;0.40;;;18.00;99.90;;;;;;5072833;28;20041;-73
2022/06/19 11:28:01;;;;;;;2.78;0.55;;;18.10;99.90;;;;;;5072473;28;20044;-72
2022/06/19 11:30:37;;;;;;;1.00;0.25;;;18.10;99.90;;;;;;5073107;28;20055;-72
2022/06/19 11:33:05;;;;;;;;;;;18.00;99.90;;;;;;5072300;28;20098;-72
2022/06/19 11:35:58;;;;;;;2.08;0.60;;;18.00;99.90;;;;;;5072882;28;19971;-72
2022/06/19 11:38:33;;;;;;;2.53;0.50;;;18.20;99.90;;;;;;5070480;28;20484;-73
2022/06/19 11:40:58;;;;;;;2.38;0.40;;;18.00;99.90;;;;;;5072790;28;20044;-73
2022/06/19 11:43:30;;;;;;;2.60;0.50;;;18.10;99.90;;;;;;5074155;28;20395;-74
2022/06/19 11:46:06;;;;;;;2.92;0.32;;;17.80;99.90;;;;;;5072946;28;20041;-74
2022/06/19 11:48:32;;;;;;;2.97;0.52;;;17.80;99.90;;;;;;5072913;28;20045;-71
2022/06/19 11:50:58;;;;;;;2.35;0.40;;;17.80;99.90;;;;;;5071864;28;20136;-74
2022/06/19 11:53:32;;;;;;;3.15;0.73;;;17.60;99.90;;;;;;5073040;28;20048;-75
2022/06/19 11:56:23;;;;;;;3.15;0.70;;;17.60;99.90;;;;;;5067938;28;20091;-75
2022/06/19 11:58:54;;;;;;;3.60;0.70;;;17.70;99.90;;;;;;5055637;28;20135;-73
2022/06/19 12:01:21;;;;;;;3.30;0.70;;;17.50;99.90;;;;;;5065482;28;20052;-73
2022/06/19 12:04:01;;;;;;;4.97;1.58;;;17.30;99.90;;;;;;5075969;28;20083;-71
2022/06/19 12:06:44;;;;;;;4.72;0.82;;;17.40;99.90;;;;;;5074715;28;20089;-71
2022/06/19 12:09:41;;;;;;;4.70;0.57;;;17.10;99.90;;;;;;5075001;28;20053;-71
2022/06/19 12:12:12;;;;;;;7.60;1.00;;;17.10;99.90;;;;;;5073081;28;20044;-72
2022/06/19 12:14:48;;;;;;;4.03;0.82;;;17.10;99.90;;;;;;5067880;28;20467;-73
2022/06/19 12:17:32;;;;;;;3.35;0.88;;;17.10;99.90;;;;;;5069656;28;20542;-73
2022/06/19 12:20:06;;;;;;;3.90;0.70;;;17.10;99.90;;;;;;5074676;28;20135;-73
2022/06/19 12:22:48;;;;;;;8.43;1.10;;;17.20;99.90;;;;;;5073015;28;20048;-73
2022/06/19 12:25:26;;;;;;;5.85;0.95;;;17.30;99.90;;;;;;5075313;28;20121;-72
2022/06/19 12:28:10;;;;;;;5.72;1.05;;;17.30;99.90;;;;;;5075310;28;20399;-73
2022/06/19 12:31:03;;;;;;;6.50;1.05;;;17.20;99.90;;;;;;5076014;28;20476;-72
2022/06/19 12:33:50;;;;;;;7.50;1.23;;;17.10;99.90;;;;;;5075455;28;20048;-72
2022/06/19 12:36:19;;;;;;;5.30;0.70;;;17.10;99.90;;;;;;5074637;28;20475;-72
2022/06/19 12:38:45;;;;;;;7.72;0.88;;;17.00;99.90;;;;;;5078156;28;20048;-71
2022/06/19 12:41:41;;;;;;;7.22;1.00;;;17.40;99.90;;;;;;5073039;28;20052;-72
2022/06/19 12:44:31;;;;;;;5.95;1.02;;;17.60;99.90;;;;;;5064423;28;20364;-71
2022/06/19 12:47:15;;;;;;;3.55;0.88;;;18.00;99.90;;;;;;5071392;28;20495;-75
2022/06/19 12:50:10;;;;;;;4.97;0.73;;;18.30;99.90;;;;;;5069962;28;20045;-71
2022/06/19 12:52:48;;;;;;;7.22;1.00;;;18.30;99.90;;;;;;5060582;28;20064;-71
2022/06/19 12:55:33;;;;;;;6.93;1.15;;;18.80;99.90;;;;;;5054308;28;20128;-70
2022/06/19 12:58:10;;;;;;;9.68;1.17;;;18.90;99.90;;;;;;5054939;28;20076;-70
2022/06/19 13:00:42;;;;;;;8.88;1.25;;;18.80;99.90;;;;;;5055158;28;20045;-71
2022/06/19 13:03:33;;;;;;;7.75;1.27;;;18.50;99.90;;;;;;5054003;28;20131;-71
2022/06/19 13:06:12;;;;;;;5.90;1.25;;;18.60;99.90;;;;;;5055044;28;20056;-71
2022/06/19 13:09:12;;;;;;;7.93;1.15;;;18.80;99.90;;;;;;5055044;28;20049;-71
2022/06/19 13:12:03;;;;;;;5.80;1.08;;;18.70;99.90;;;;;;5055440;28;20045;-72
2022/06/19 13:14:51;;;;;;;6.47;1.25;;;18.50;99.90;;;;;;5054847;28;20053;-70
2022/06/19 13:17:39;;;;;;;3.17;0.88;;;18.40;99.90;;;;;;5054759;28;20056;-71